createdAt,value
2023-03-24T00:00:49.305Z,75.88
2023-03-24T00:03:17.947Z,77.51
2023-03-24T00:05:45.422Z,78.39
2023-03-24T00:08:13.053Z,79.36
2023-03-24T00:10:42.660Z,79.77
2023-03-24T00:13:10.185Z,80.69
2023-03-24T00:15:50.253Z,81.11
2023-03-24T00:18:18.441Z,80.47
2023-03-24T00:20:46.177Z,79.40
2023-03-24T00:23:15.469Z,78.55
2023-03-24T00:25:42.943Z,78.01
2023-03-24T00:28:11.324Z,76.14
2023-03-24T00:30:41.423Z,74.72
2023-03-24T00:33:09.883Z,73.78
2023-03-24T00:35:40.730Z,72.92
2023-03-24T00:38:09.353Z,73.04
2023-03-24T00:40:36.590Z,72.96
2023-03-24T00:43:06.903Z,73.16
2023-03-24T00:45:35.007Z,73.11
2023-03-24T00:48:06.349Z,73.61
2023-03-24T00:50:35.015Z,73.74
2023-03-24T00:53:02.529Z,74.20
2023-03-24T00:55:32.174Z,74.01
2023-03-24T00:58:01.137Z,74.27
2023-03-24T01:00:30.403Z,74.38
2023-03-24T01:02:58.507Z,74.44
2023-03-24T01:05:30.463Z,74.71
2023-03-24T01:07:58.740Z,75.59
2023-03-24T01:10:34.377Z,75.13
2023-03-24T01:13:02.210Z,74.73
2023-03-24T01:15:33.907Z,74.66
2023-03-24T01:18:04.174Z,73.93
2023-03-24T01:20:35.584Z,74.04
2023-03-24T01:23:05.278Z,74.51
2023-03-24T01:25:35.993Z,74.94
2023-03-24T01:28:03.577Z,74.66
2023-03-24T01:30:32.995Z,74.70
2023-03-24T01:33:00.597Z,74.96
2023-03-24T01:35:29.526Z,74.70
2023-03-24T01:37:57.730Z,74.87
2023-03-24T01:40:29.523Z,74.49
2023-03-24T01:42:57.563Z,74.62
2023-03-24T01:45:58.156Z,74.04
2023-03-24T01:48:31.655Z,72.85
2023-03-24T01:51:03.562Z,74.41
2023-03-24T01:53:32.491Z,74.88
2023-03-24T01:56:00.754Z,75.23
2023-03-24T01:58:28.631Z,75.38
2023-03-24T02:01:01.218Z,76.44
2023-03-24T02:03:34.023Z,78.40
2023-03-24T02:06:02.565Z,78.41
2023-03-24T02:09:02.119Z,78.65
2023-03-24T02:11:31.713Z,77.99
2023-03-24T02:14:03.469Z,77.93
2023-03-24T02:16:59.455Z,78.41
2023-03-24T02:19:41.657Z,78.31
2023-03-24T02:22:21.492Z,78.15
2023-03-24T02:25:10.111Z,77.58
2023-03-24T02:28:02.798Z,78.83
2023-03-24T02:30:51.666Z,79.84
2023-03-24T02:33:56.533Z,80.31
2023-03-24T02:36:37.799Z,80.56
2023-03-24T02:39:14.259Z,80.26
2023-03-24T02:42:15.967Z,80.72
2023-03-24T02:44:43.163Z,80.90
2023-03-24T02:47:24.789Z,80.98
2023-03-24T02:49:57.255Z,80.38
2023-03-24T02:52:45.451Z,79.66
2023-03-24T02:55:16.878Z,80.54
2023-03-24T02:58:03.547Z,80.53
2023-03-24T03:00:47.716Z,80.42
2023-03-24T03:03:24.015Z,80.59
2023-03-24T03:05:54.595Z,80.84
2023-03-24T03:08:22.146Z,80.79
2023-03-24T03:10:49.700Z,81.32
2023-03-24T03:13:34.657Z,81.52
2023-03-24T03:16:10.804Z,81.89
2023-03-24T03:18:41.534Z,81.84
2023-03-24T03:21:13.848Z,82.16
2023-03-24T03:23:48.239Z,82.68
2023-03-24T03:26:18.293Z,82.97
2023-03-24T03:28:50.241Z,83.05
2023-03-24T03:31:23.812Z,82.89
2023-03-24T03:33:55.872Z,83.04
2023-03-24T03:36:29.698Z,82.64
2023-03-24T03:39:09.617Z,82.72
2023-03-24T03:41:37.511Z,82.40
2023-03-24T03:44:05.105Z,82.58
2023-03-24T03:46:33.517Z,82.63
2023-03-24T03:49:00.836Z,83.06
2023-03-24T03:51:30.850Z,83.70
2023-03-24T03:53:59.892Z,83.75
2023-03-24T03:56:28.356Z,84.08
2023-03-24T03:58:55.701Z,84.43
2023-03-24T04:01:25.542Z,85.31
2023-03-24T04:04:05.264Z,86.55
2023-03-24T04:07:20.194Z,86.69
2023-03-24T04:10:05.947Z,87.19
2023-03-24T04:12:49.735Z,87.46
2023-03-24T04:15:35.240Z,87.47
2023-03-24T04:18:16.294Z,86.92
2023-03-24T04:21:13.042Z,86.57
2023-03-24T04:23:50.587Z,86.17
2023-03-24T04:26:27.905Z,85.66
2023-03-24T04:29:10.666Z,86.07
2023-03-24T04:31:56.175Z,86.21
2023-03-24T04:34:29.468Z,86.17
2023-03-24T04:37:02.862Z,85.88
2023-03-24T04:39:32.074Z,85.89
2023-03-24T04:42:04.583Z,85.52
2023-03-24T04:44:33.291Z,85.39
2023-03-24T04:47:01.888Z,85.93
2023-03-24T04:49:29.864Z,84.52
2023-03-24T04:51:57.072Z,84.28
2023-03-24T04:54:24.362Z,84.14
2023-03-24T04:56:55.320Z,84.52
2023-03-24T04:59:22.675Z,84.62
2023-03-24T05:01:50.296Z,84.62
2023-03-24T05:04:24.058Z,83.35
2023-03-24T05:06:52.524Z,82.53
2023-03-24T05:09:24.233Z,82.56
2023-03-24T05:12:00.457Z,82.27
2023-03-24T05:14:29.969Z,81.37
2023-03-24T05:16:57.471Z,80.45
2023-03-24T05:19:24.952Z,80.62
2023-03-24T05:21:53.717Z,80.53
2023-03-24T05:24:22.289Z,80.39
2023-03-24T05:26:50.005Z,80.79
2023-03-24T05:29:17.428Z,80.28
2023-03-24T05:31:45.197Z,79.87
2023-03-24T05:34:12.866Z,78.39
2023-03-24T05:36:40.307Z,77.93
2023-03-24T05:39:08.457Z,77.41
2023-03-24T05:41:38.735Z,77.08
2023-03-24T05:44:06.137Z,76.30
2023-03-24T05:46:33.482Z,75.49
2023-03-24T05:49:00.844Z,74.87
2023-03-24T05:51:32.450Z,73.96
2023-03-24T05:53:59.864Z,72.71
2023-03-24T05:56:28.084Z,72.16
2023-03-24T05:58:56.308Z,70.91
2023-03-24T06:01:25.380Z,70.46
2023-03-24T06:03:52.705Z,69.20
2023-03-24T06:06:20.069Z,68.38
2023-03-24T06:08:54.589Z,68.29
2023-03-24T06:11:22.676Z,68.75
2023-03-24T06:13:50.788Z,69.47
2023-03-24T06:16:23.854Z,70.00
2023-03-24T06:18:53.064Z,70.24
2023-03-24T06:21:20.702Z,68.88
2023-03-24T06:23:53.490Z,67.71
2023-03-24T06:26:21.123Z,66.02
2023-03-24T06:28:51.807Z,66.21
2023-03-24T06:31:21.559Z,63.91
2023-03-24T06:33:50.560Z,62.53
2023-03-24T06:36:18.335Z,60.18
2023-03-24T06:38:46.770Z,59.39
2023-03-24T06:41:13.947Z,57.18
2023-03-24T06:43:41.311Z,57.39
2023-03-24T06:46:10.084Z,57.08
2023-03-24T06:48:38.613Z,56.35
2023-03-24T06:51:12.121Z,56.36
2023-03-24T06:53:41.258Z,55.30
2023-03-24T06:56:17.214Z,54.65
2023-03-24T06:58:46.195Z,54.13
2023-03-24T07:01:14.854Z,53.24
2023-03-24T07:03:43.348Z,53.06
2023-03-24T07:06:10.745Z,52.12
2023-03-24T07:08:38.946Z,51.27
2023-03-24T07:11:09.682Z,50.82
2023-03-24T07:13:37.606Z,50.56
2023-03-24T07:16:05.462Z,48.87
2023-03-24T07:18:32.827Z,48.95
2023-03-24T07:21:00.321Z,49.43
2023-03-24T07:23:28.086Z,49.71
2023-03-24T07:25:55.862Z,48.97
2023-03-24T07:28:23.917Z,48.50
2023-03-24T07:30:54.892Z,48.63
2023-03-24T07:33:24.999Z,48.63
2023-03-24T07:35:57.385Z,48.68
2023-03-24T07:38:26.101Z,48.62
2023-03-24T07:40:53.414Z,48.06
2023-03-24T07:43:25.893Z,48.53
2023-03-24T07:45:57.884Z,48.87
2023-03-24T07:48:25.132Z,48.62
2023-03-24T07:50:53.383Z,48.64
2023-03-24T07:53:20.761Z,49.33
2023-03-24T07:55:48.730Z,48.70
2023-03-24T07:58:16.228Z,48.18
2023-03-24T08:00:44.741Z,48.92
2023-03-24T08:03:14.301Z,47.82
2023-03-24T08:05:42.327Z,46.77
2023-03-24T08:08:09.619Z,45.71
2023-03-24T08:10:37.105Z,44.71
2023-03-24T08:13:06.182Z,43.90
2023-03-24T08:15:33.478Z,43.67
2023-03-24T08:18:02.225Z,44.54
2023-03-24T08:20:29.632Z,43.60
2023-03-24T08:22:58.330Z,43.38
2023-03-24T08:25:26.094Z,43.50
2023-03-24T08:27:53.497Z,43.91
2023-03-24T08:30:22.164Z,44.85
2023-03-24T08:33:00.527Z,44.54
2023-03-24T08:35:32.685Z,44.60
2023-03-24T08:38:01.097Z,43.74
2023-03-24T08:40:29.191Z,43.02
2023-03-24T08:42:59.454Z,41.92
2023-03-24T08:45:28.388Z,40.14
2023-03-24T08:47:56.069Z,39.98
2023-03-24T08:50:24.290Z,38.54
2023-03-24T08:52:52.104Z,39.31
2023-03-24T08:55:19.494Z,39.58
2023-03-24T08:57:52.754Z,38.86
2023-03-24T09:00:20.955Z,38.46
2023-03-24T09:03:08.029Z,38.96
2023-03-24T09:05:54.031Z,38.96
2023-03-24T09:08:21.731Z,40.13
2023-03-24T09:10:49.092Z,40.23
2023-03-24T09:13:17.883Z,39.83
2023-03-24T09:15:49.817Z,39.28
2023-03-24T09:18:17.596Z,39.16
2023-03-24T09:20:45.071Z,39.39
2023-03-24T09:23:13.193Z,39.67
2023-03-24T09:25:40.853Z,39.06
2023-03-24T09:28:08.840Z,37.32
2023-03-24T09:30:36.411Z,36.17
2023-03-24T09:33:04.952Z,36.74
2023-03-24T09:35:32.437Z,35.76
2023-03-24T09:38:00.734Z,35.63
2023-03-24T09:40:33.093Z,36.17
2023-03-24T09:43:04.626Z,36.57
2023-03-24T09:45:34.425Z,36.11
2023-03-24T09:48:17.889Z,34.75
2023-03-24T09:51:20.770Z,33.82
2023-03-24T09:53:57.174Z,32.85
2023-03-24T09:56:25.617Z,33.86
2023-03-24T09:59:25.344Z,35.64
2023-03-24T10:01:52.577Z,36.96
2023-03-24T10:04:21.569Z,37.23
2023-03-24T10:06:53.056Z,37.45
2023-03-24T10:09:31.561Z,38.00
2023-03-24T10:12:29.747Z,38.52
2023-03-24T10:15:39.161Z,36.55
2023-03-24T10:18:34.831Z,35.45
2023-03-24T10:21:17.909Z,35.94
2023-03-24T10:24:21.572Z,35.54
2023-03-24T10:27:04.568Z,33.23
2023-03-24T10:29:34.016Z,32.41
2023-03-24T10:32:22.390Z,31.73
2023-03-24T10:34:54.494Z,31.16
2023-03-24T10:37:21.961Z,30.63
2023-03-24T10:39:49.644Z,31.66
2023-03-24T10:42:19.366Z,31.92
2023-03-24T10:44:52.298Z,31.49
2023-03-24T10:47:25.617Z,31.31
2023-03-24T10:50:12.284Z,31.96
2023-03-24T10:52:46.967Z,31.57
2023-03-24T10:55:19.294Z,31.24
2023-03-24T10:57:48.881Z,31.83
2023-03-24T11:00:29.622Z,31.23
2023-03-24T11:03:01.655Z,30.49
2023-03-24T11:05:33.770Z,30.94
2023-03-24T11:08:35.647Z,30.79
2023-03-24T11:11:29.188Z,30.74
2023-03-24T11:14:04.297Z,31.72
2023-03-24T11:16:35.861Z,32.40
2023-03-24T11:19:18.342Z,32.00
2023-03-24T11:21:46.530Z,31.67
2023-03-24T11:24:15.804Z,31.20
2023-03-24T11:27:05.310Z,30.72
2023-03-24T11:29:38.223Z,30.88
2023-03-24T11:32:13.658Z,29.91
2023-03-24T11:34:46.265Z,29.49
2023-03-24T11:37:20.582Z,29.86
2023-03-24T11:40:15.491Z,30.02
2023-03-24T11:42:47.115Z,29.32
2023-03-24T11:45:43.315Z,30.48
2023-03-24T11:48:35.850Z,31.55
2023-03-24T11:51:03.254Z,30.85
2023-03-24T11:53:48.021Z,30.15
2023-03-24T11:56:30.090Z,30.02
2023-03-24T11:59:31.935Z,30.04
2023-03-24T12:02:11.565Z,30.93
2023-03-24T12:04:42.558Z,30.50
2023-03-24T12:07:25.221Z,30.48
2023-03-24T12:10:11.777Z,29.47
2023-03-24T12:13:02.682Z,30.01
2023-03-24T12:15:35.894Z,29.97
2023-03-24T12:18:09.268Z,29.63
2023-03-24T12:21:02.163Z,30.07
2023-03-24T12:23:59.163Z,30.13
2023-03-24T12:26:30.197Z,30.21
2023-03-24T12:29:06.704Z,30.52
2023-03-24T12:31:43.093Z,30.97
2023-03-24T12:34:19.012Z,30.98
2023-03-24T12:36:58.201Z,31.60
2023-03-24T12:39:31.058Z,31.36
2023-03-24T12:42:10.515Z,30.28
2023-03-24T12:44:56.053Z,31.15
2023-03-24T12:47:41.633Z,31.13
2023-03-24T12:50:23.861Z,31.13
2023-03-24T12:53:08.416Z,30.93
2023-03-24T12:55:54.117Z,31.43
2023-03-24T12:58:35.853Z,31.03
2023-03-24T13:01:24.006Z,30.97
2023-03-24T13:03:58.659Z,31.90
2023-03-24T13:06:29.353Z,31.26
2023-03-24T13:09:05.855Z,31.44
2023-03-24T13:11:43.545Z,31.37
2023-03-24T13:14:14.292Z,31.09
2023-03-24T13:16:42.163Z,31.21
2023-03-24T13:19:17.189Z,31.85
2023-03-24T13:21:44.779Z,31.56
2023-03-24T13:24:14.876Z,30.57
2023-03-24T13:27:20.497Z,31.49
2023-03-24T13:30:21.345Z,31.84
2023-03-24T13:33:09.253Z,32.06
2023-03-24T13:35:54.637Z,32.94
2023-03-24T13:38:34.105Z,32.55
2023-03-24T13:41:02.827Z,33.29
2023-03-24T13:43:31.203Z,34.05
2023-03-24T13:46:00.644Z,34.22
2023-03-24T13:48:31.316Z,33.94
2023-03-24T13:51:17.725Z,33.18
2023-03-24T13:53:49.983Z,33.17
2023-03-24T13:56:34.915Z,32.60
2023-03-24T13:59:02.047Z,33.17
2023-03-24T14:01:44.107Z,33.07
2023-03-24T14:04:43.598Z,32.99
2023-03-24T14:07:33.492Z,33.27
2023-03-24T14:10:14.161Z,33.68
2023-03-24T14:12:59.724Z,33.70
2023-03-24T14:15:30.022Z,33.42
2023-03-24T14:18:22.523Z,33.44
2023-03-24T14:20:55.901Z,33.46
2023-03-24T14:23:49.383Z,33.76
2023-03-24T14:26:20.061Z,33.36
2023-03-24T14:28:51.638Z,33.66
2023-03-24T14:31:24.657Z,33.91
2023-03-24T14:33:55.049Z,34.34
2023-03-24T14:36:41.348Z,34.37
2023-03-24T14:39:23.913Z,34.96
2023-03-24T14:41:52.693Z,35.30
2023-03-24T14:44:44.932Z,35.87
2023-03-24T14:47:33.990Z,35.92
2023-03-24T14:50:04.014Z,35.92
2023-03-24T14:52:32.038Z,36.28
2023-03-24T14:55:06.028Z,36.51
2023-03-24T14:57:45.002Z,36.68
2023-03-24T15:00:19.240Z,36.99
2023-03-24T15:02:48.742Z,37.20
2023-03-24T15:05:23.065Z,37.13
2023-03-24T15:08:13.660Z,37.29
2023-03-24T15:10:53.418Z,37.43
2023-03-24T15:13:40.693Z,37.55
2023-03-24T15:16:18.220Z,37.92
2023-03-24T15:19:09.483Z,37.78
2023-03-24T15:21:47.211Z,38.00
2023-03-24T15:24:24.126Z,38.05
2023-03-24T15:26:56.440Z,38.49
2023-03-24T15:29:25.570Z,38.58
2023-03-24T15:31:52.922Z,38.44
2023-03-24T15:34:37.202Z,38.79
2023-03-24T15:37:09.635Z,38.92
2023-03-24T15:39:38.163Z,38.90
2023-03-24T15:42:14.199Z,39.17
2023-03-24T15:44:41.607Z,39.51
2023-03-24T15:47:21.531Z,39.56
2023-03-24T15:49:58.997Z,39.66
2023-03-24T15:52:26.181Z,39.91
2023-03-24T15:54:55.622Z,39.80
2023-03-24T15:57:24.213Z,39.85
2023-03-24T15:59:52.576Z,39.98
2023-03-24T16:02:22.610Z,39.79
2023-03-24T16:05:00.307Z,40.19
2023-03-24T16:07:37.668Z,40.31
2023-03-24T16:10:06.345Z,40.41
2023-03-24T16:12:35.000Z,40.55
2023-03-24T16:15:06.924Z,40.52
2023-03-24T16:17:35.130Z,40.67
2023-03-24T16:20:08.833Z,40.67
2023-03-24T16:22:41.925Z,40.80
2023-03-24T16:25:09.498Z,41.01
2023-03-24T16:27:36.857Z,41.25
2023-03-24T16:30:22.323Z,41.36
2023-03-24T16:32:50.439Z,41.62
2023-03-24T16:35:18.433Z,41.63
2023-03-24T16:37:47.247Z,41.82
2023-03-24T16:40:25.681Z,42.00
2023-03-24T16:42:53.212Z,42.36
2023-03-24T16:45:20.675Z,42.59
2023-03-24T16:47:49.226Z,42.42
2023-03-24T16:50:24.871Z,42.48
2023-03-24T16:52:52.282Z,42.68
2023-03-24T16:55:20.151Z,42.67
2023-03-24T16:57:48.019Z,42.88
2023-03-24T17:00:16.117Z,43.00
2023-03-24T17:02:48.319Z,43.19
2023-03-24T17:05:24.413Z,43.63
2023-03-24T17:07:54.160Z,43.51
2023-03-24T17:10:23.200Z,43.73
2023-03-24T17:12:51.040Z,43.73
2023-03-24T17:15:25.283Z,43.80
2023-03-24T17:17:54.514Z,43.61
2023-03-24T17:20:23.843Z,43.71
2023-03-24T17:22:52.745Z,44.16
2023-03-24T17:25:22.512Z,44.28
2023-03-24T17:27:52.476Z,44.34
2023-03-24T17:30:21.629Z,44.40
2023-03-24T17:32:49.326Z,44.53
2023-03-24T17:35:21.790Z,44.70
2023-03-24T17:37:49.667Z,44.74
2023-03-24T17:40:17.996Z,45.13
2023-03-24T17:42:46.609Z,45.38
2023-03-24T17:45:16.892Z,45.62
2023-03-24T17:47:47.637Z,45.90
2023-03-24T17:50:34.758Z,45.88
2023-03-24T17:53:03.873Z,45.85
2023-03-24T17:55:31.277Z,46.13
2023-03-24T17:57:58.527Z,46.19
2023-03-24T18:00:25.982Z,46.28
2023-03-24T18:02:53.307Z,46.72
2023-03-24T18:05:24.291Z,46.52
2023-03-24T18:07:51.660Z,46.88
2023-03-24T18:10:19.089Z,46.66
2023-03-24T18:12:47.115Z,46.60
2023-03-24T18:15:15.570Z,47.00
2023-03-24T18:17:43.330Z,47.04
2023-03-24T18:20:12.182Z,47.23
2023-03-24T18:22:41.115Z,47.38
2023-03-24T18:25:13.533Z,47.38
2023-03-24T18:27:45.926Z,47.32
2023-03-24T18:30:14.611Z,47.93
2023-03-24T18:32:42.934Z,47.82
2023-03-24T18:35:11.959Z,47.98
2023-03-24T18:37:39.475Z,48.23
2023-03-24T18:40:10.049Z,48.40
2023-03-24T18:42:38.259Z,48.47
2023-03-24T18:45:06.911Z,48.84
2023-03-24T18:47:37.222Z,49.22
2023-03-24T18:50:04.932Z,49.27
2023-03-24T18:52:41.428Z,49.54
2023-03-24T18:55:09.861Z,49.65
2023-03-24T18:57:37.500Z,49.81
2023-03-24T19:00:12.205Z,49.74
2023-03-24T19:02:39.784Z,49.94
2023-03-24T19:05:07.708Z,50.19
2023-03-24T19:07:37.180Z,50.50
2023-03-24T19:10:05.349Z,50.58
2023-03-24T19:12:33.194Z,51.02
2023-03-24T19:15:04.535Z,51.25
2023-03-24T19:17:33.241Z,51.47
2023-03-24T19:20:04.947Z,51.11
2023-03-24T19:22:33.319Z,51.06
2023-03-24T19:25:01.395Z,51.38
2023-03-24T19:27:28.792Z,51.46
2023-03-24T19:29:57.082Z,51.51
2023-03-24T19:32:24.483Z,51.36
2023-03-24T19:34:53.732Z,51.29
2023-03-24T19:37:23.153Z,51.68
2023-03-24T19:39:52.904Z,51.96
2023-03-24T19:42:20.319Z,52.34
2023-03-24T19:44:47.714Z,53.39
2023-03-24T19:47:15.302Z,54.01
2023-03-24T19:49:43.077Z,54.79
2023-03-24T19:52:16.409Z,56.14
2023-03-24T19:54:44.638Z,58.23
2023-03-24T19:57:11.921Z,61.13
2023-03-24T19:59:39.497Z,62.37
2023-03-24T20:02:06.785Z,63.40
2023-03-24T20:04:34.096Z,66.15
2023-03-24T20:07:03.242Z,67.72
2023-03-24T20:09:30.763Z,68.55
2023-03-24T20:11:58.057Z,70.63
2023-03-24T20:14:25.333Z,72.21
2023-03-24T20:16:52.820Z,73.19
2023-03-24T20:19:27.960Z,74.35
2023-03-24T20:21:55.579Z,76.20
2023-03-24T20:24:23.376Z,77.14
2023-03-24T20:26:51.422Z,78.36
2023-03-24T20:29:18.918Z,79.55
2023-03-24T20:31:46.269Z,80.78
2023-03-24T20:34:16.288Z,81.55
2023-03-24T20:36:43.680Z,82.82
2023-03-24T20:39:14.394Z,83.57
2023-03-24T20:41:42.324Z,84.82
2023-03-24T20:44:10.380Z,86.12
2023-03-24T20:46:40.278Z,86.79
2023-03-24T20:49:08.632Z,87.72
2023-03-24T20:51:35.902Z,88.49
2023-03-24T20:54:03.165Z,88.82
2023-03-24T20:56:30.495Z,89.86
2023-03-24T20:58:57.727Z,90.36
2023-03-24T21:01:25.371Z,90.57
2023-03-24T21:03:53.146Z,91.19
2023-03-24T21:06:20.852Z,91.99
2023-03-24T21:08:48.556Z,92.21
2023-03-24T21:11:20.352Z,92.59
2023-03-24T21:13:48.120Z,91.92
2023-03-24T21:16:19.530Z,92.34
2023-03-24T21:18:49.363Z,93.33
2023-03-24T21:21:17.086Z,93.58
2023-03-24T21:23:44.375Z,94.28
2023-03-24T21:26:15.260Z,94.54
2023-03-24T21:28:43.065Z,95.65
2023-03-24T21:31:18.783Z,96.55
2023-03-24T21:33:46.155Z,96.82
2023-03-24T21:36:13.787Z,96.99
2023-03-24T21:38:42.170Z,97.56
2023-03-24T21:41:09.648Z,98.40
2023-03-24T21:43:37.458Z,98.47
2023-03-24T21:46:04.848Z,98.79
2023-03-24T21:48:40.088Z,99.66
2023-03-24T21:51:07.796Z,100.00
2023-03-24T21:53:35.197Z,100.00
2023-03-24T21:56:05.530Z,100.00
2023-03-24T21:58:33.568Z,100.00
2023-03-24T22:01:01.494Z,100.00
2023-03-24T22:03:30.609Z,100.00
2023-03-24T22:05:58.045Z,100.00
2023-03-24T22:08:26.922Z,100.00
2023-03-24T22:10:58.113Z,100.00
2023-03-24T22:13:29.905Z,100.00
2023-03-24T22:15:58.626Z,100.00
2023-03-24T22:18:27.014Z,100.00
2023-03-24T22:20:55.964Z,100.00
2023-03-24T22:23:23.474Z,100.00
2023-03-24T22:25:52.350Z,100.00
2023-03-24T22:28:23.962Z,100.00
2023-03-24T22:30:51.215Z,100.00
2023-03-24T22:33:18.777Z,100.00
2023-03-24T22:35:46.317Z,100.00
2023-03-24T22:38:16.104Z,100.00
2023-03-24T22:40:44.409Z,100.00
2023-03-24T22:43:12.332Z,100.00
2023-03-24T22:45:39.602Z,100.00
2023-03-24T22:48:06.920Z,100.00
2023-03-24T22:50:34.628Z,100.00
2023-03-24T22:53:01.903Z,100.00
2023-03-24T22:55:30.352Z,100.00
2023-03-24T22:57:57.563Z,100.00
2023-03-24T23:00:27.274Z,100.00
2023-03-24T23:02:56.461Z,100.00
2023-03-24T23:05:23.748Z,100.00
2023-03-24T23:07:52.189Z,100.00
2023-03-24T23:10:20.121Z,100.00
2023-03-24T23:12:54.322Z,100.00
2023-03-24T23:15:42.628Z,100.00
2023-03-24T23:18:10.863Z,100.00
2023-03-24T23:20:38.323Z,100.00
2023-03-24T23:23:07.097Z,100.00
2023-03-24T23:25:44.793Z,100.00
2023-03-24T23:28:13.679Z,100.00
2023-03-24T23:30:41.363Z,100.00
2023-03-24T23:33:09.175Z,100.00
2023-03-24T23:35:37.583Z,100.00
2023-03-24T23:38:08.588Z,100.00
2023-03-24T23:40:36.192Z,100.00
2023-03-24T23:43:03.702Z,100.00
2023-03-24T23:45:32.968Z,100.00
2023-03-24T23:48:00.539Z,100.00
2023-03-24T23:50:29.255Z,100.00
2023-03-24T23:53:16.512Z,100.00
2023-03-24T23:55:56.837Z,100.00
2023-03-24T23:58:24.888Z,100.00
